createdAt,value
2019-03-27T00:01:36.196Z,30.68
2019-03-27T00:07:41.039Z,33.35
2019-03-27T00:13:45.862Z,33.67
2019-03-27T00:19:51.041Z,29.77
2019-03-27T00:25:55.815Z,36.20
2019-03-27T00:32:00.685Z,33.20
2019-03-27T00:38:05.635Z,33.25
2019-03-27T00:44:10.409Z,30.85
2019-03-27T00:50:15.351Z,33.98
2019-03-27T00:56:20.221Z,35.13
2019-03-27T01:02:24.981Z,35.10
2019-03-27T01:08:29.757Z,35.38
2019-03-27T01:14:34.513Z,38.40
2019-03-27T01:20:39.366Z,37.15
2019-03-27T01:26:44.185Z,34.67
2019-03-27T01:32:48.941Z,35.95
2019-03-27T01:38:53.705Z,36.38
2019-03-27T01:44:58.570Z,34.65
2019-03-27T01:51:03.419Z,36.00
2019-03-27T01:57:08.253Z,36.10
2019-03-27T02:03:13.086Z,37.08
2019-03-27T02:09:17.856Z,34.03
2019-03-27T02:15:22.722Z,37.33
2019-03-27T02:21:27.622Z,37.33
2019-03-27T02:27:32.507Z,39.42
2019-03-27T02:33:37.251Z,38.67
2019-03-27T02:39:42.124Z,41.02
2019-03-27T02:45:46.866Z,41.77
2019-03-27T02:51:52.138Z,47.08
2019-03-27T02:57:56.950Z,38.42
2019-03-27T03:04:01.907Z,38.17
2019-03-27T03:10:09.081Z,37.75
2019-03-27T03:16:13.928Z,38.80
2019-03-27T03:22:18.735Z,39.73
2019-03-27T03:28:23.565Z,36.63
2019-03-27T03:34:28.340Z,35.45
2019-03-27T03:40:33.155Z,40.35
2019-03-27T03:46:37.908Z,37.45
2019-03-27T03:52:45.840Z,43.00
2019-03-27T03:58:50.107Z,39.92
2019-03-27T04:04:56.535Z,37.42
2019-03-27T04:11:01.282Z,40.28
2019-03-27T04:17:16.856Z,44.18
2019-03-27T04:23:12.640Z,37.75
2019-03-27T04:29:17.454Z,41.25
2019-03-27T04:35:22.535Z,42.65
2019-03-27T04:41:27.265Z,37.95
2019-03-27T04:47:32.743Z,43.42
2019-03-27T04:53:37.629Z,48.28
2019-03-27T04:59:42.339Z,41.10
2019-03-27T05:05:47.083Z,38.75
2019-03-27T05:11:51.873Z,38.53
2019-03-27T05:17:56.603Z,42.53
2019-03-27T05:24:01.323Z,43.70
2019-03-27T05:30:07.068Z,42.43
2019-03-27T05:36:11.887Z,42.30
2019-03-27T05:42:16.739Z,39.73
2019-03-27T05:48:21.481Z,76.82
2019-03-27T05:54:26.316Z,137.07
2019-03-27T06:00:33.368Z,182.68
2019-03-27T06:06:37.576Z,54.35
2019-03-27T06:12:42.325Z,56.98
2019-03-27T06:18:47.071Z,58.15
2019-03-27T06:24:51.794Z,56.73
2019-03-27T06:30:56.618Z,49.73
2019-03-27T06:37:01.417Z,48.20
2019-03-27T06:43:06.420Z,49.48
2019-03-27T06:49:11.166Z,48.98
2019-03-27T06:55:15.956Z,53.70
2019-03-27T07:01:20.730Z,52.00
2019-03-27T07:07:25.488Z,49.27
2019-03-27T07:13:30.232Z,42.48
2019-03-27T07:19:34.994Z,44.08
2019-03-27T07:25:39.756Z,51.37
2019-03-27T07:31:44.811Z,45.67
2019-03-27T07:37:49.668Z,46.33
2019-03-27T07:43:54.765Z,43.68
2019-03-27T07:49:59.682Z,48.87
2019-03-27T07:56:04.681Z,46.18
2019-03-27T08:02:09.590Z,43.10
2019-03-27T08:08:14.405Z,44.77
2019-03-27T08:14:19.175Z,42.03
2019-03-27T08:20:24.011Z,37.40
2019-03-27T08:26:28.782Z,40.05
2019-03-27T08:32:33.627Z,28.95
2019-03-27T08:38:38.502Z,29.85
2019-03-27T08:44:43.378Z,32.60
2019-03-27T08:50:48.215Z,34.15
2019-03-27T08:56:53.049Z,29.02
2019-03-27T09:02:57.799Z,22.62
2019-03-27T09:09:02.635Z,18.00
2019-03-27T09:15:08.214Z,17.45
2019-03-27T09:21:13.339Z,16.52
2019-03-27T09:27:18.271Z,16.35
2019-03-27T09:33:23.225Z,17.70
2019-03-27T09:39:27.939Z,21.70
2019-03-27T09:45:32.677Z,13.98
2019-03-27T09:51:37.449Z,21.35
2019-03-27T09:57:42.280Z,17.32
2019-03-27T10:03:47.051Z,16.62
2019-03-27T10:09:52.077Z,17.37
2019-03-27T10:15:56.953Z,13.62
2019-03-27T10:22:01.888Z,13.95
2019-03-27T10:28:06.664Z,18.52
2019-03-27T10:34:11.633Z,18.45
2019-03-27T10:40:16.877Z,18.75
2019-03-27T10:46:21.611Z,18.95
2019-03-27T10:52:26.427Z,15.38
2019-03-27T10:58:31.195Z,14.13
2019-03-27T11:04:35.988Z,15.60
2019-03-27T11:10:40.808Z,18.20
2019-03-27T11:16:45.782Z,17.15
2019-03-27T11:22:50.737Z,14.10
2019-03-27T11:28:55.622Z,14.30
2019-03-27T11:35:00.500Z,16.75
2019-03-27T11:41:08.033Z,19.62
2019-03-27T11:47:13.506Z,17.35
2019-03-27T11:53:18.509Z,13.75
2019-03-27T11:59:23.345Z,16.65
2019-03-27T12:05:28.174Z,18.87
2019-03-27T12:11:33.092Z,15.35
2019-03-27T12:17:37.952Z,14.10
2019-03-27T12:23:43.073Z,15.13
2019-03-27T12:29:48.778Z,15.13
2019-03-27T12:35:53.558Z,13.62
2019-03-27T12:41:58.424Z,14.93
2019-03-27T12:48:03.297Z,13.65
2019-03-27T12:54:08.143Z,12.20
2019-03-27T13:00:13.137Z,14.05
2019-03-27T13:06:18.268Z,13.25
2019-03-27T13:12:23.920Z,14.45
2019-03-27T13:18:28.794Z,15.58
2019-03-27T13:24:33.555Z,15.30
2019-03-27T13:30:38.429Z,15.95
2019-03-27T13:36:47.795Z,16.48
2019-03-27T13:42:52.571Z,14.73
2019-03-27T13:48:57.706Z,12.18
2019-03-27T13:55:02.576Z,17.95
2019-03-27T14:01:08.902Z,15.30
2019-03-27T14:07:14.299Z,13.98
2019-03-27T14:13:19.228Z,16.87
2019-03-27T14:19:24.080Z,18.40
2019-03-27T14:25:28.961Z,17.10
2019-03-27T14:31:33.763Z,22.60
2019-03-27T14:37:38.764Z,15.48
2019-03-27T14:43:43.602Z,16.95
2019-03-27T14:49:48.611Z,16.57
2019-03-27T14:55:53.454Z,18.35
2019-03-27T15:01:58.429Z,18.80
2019-03-27T15:08:04.322Z,18.23
2019-03-27T15:14:09.518Z,19.12
2019-03-27T15:20:14.590Z,22.20
2019-03-27T15:26:19.432Z,17.23
2019-03-27T15:32:24.506Z,20.60
2019-03-27T15:38:29.602Z,19.35
2019-03-27T15:44:34.607Z,21.20
2019-03-27T15:50:39.626Z,20.17
2019-03-27T15:56:44.786Z,19.90
2019-03-27T16:02:49.620Z,16.20
2019-03-27T16:08:54.472Z,18.12
2019-03-27T16:14:59.274Z,17.67
2019-03-27T16:21:04.648Z,16.93
2019-03-27T16:27:09.588Z,19.85
2019-03-27T16:33:14.681Z,18.82
2019-03-27T16:39:19.710Z,17.75
2019-03-27T16:45:24.707Z,16.55
2019-03-27T16:51:29.647Z,15.60
2019-03-27T16:57:34.843Z,16.52
2019-03-27T17:03:39.719Z,18.23
2019-03-27T17:09:44.512Z,17.77
2019-03-27T17:15:49.381Z,17.42
2019-03-27T17:21:54.452Z,15.95
2019-03-27T17:27:59.330Z,18.42
2019-03-27T17:34:04.456Z,15.50
2019-03-27T17:40:09.468Z,21.05
2019-03-27T17:46:14.365Z,20.43
2019-03-27T17:52:19.128Z,21.97
2019-03-27T17:58:23.911Z,22.55
2019-03-27T18:04:28.817Z,25.65
2019-03-27T18:10:33.697Z,24.87
2019-03-27T18:16:38.572Z,24.52
2019-03-27T18:22:43.685Z,27.37
2019-03-27T18:28:48.407Z,28.87
2019-03-27T18:34:53.462Z,25.10
2019-03-27T18:40:58.319Z,26.77
2019-03-27T18:47:03.078Z,25.08
2019-03-27T18:53:07.922Z,28.87
2019-03-27T18:59:12.782Z,27.13
2019-03-27T19:05:18.537Z,29.10
2019-03-27T19:11:23.349Z,26.62
2019-03-27T19:17:28.166Z,30.77
2019-03-27T19:23:32.930Z,30.80
2019-03-27T19:29:37.814Z,28.52
2019-03-27T19:35:42.714Z,28.80
2019-03-27T19:41:47.671Z,34.63
2019-03-27T19:47:52.593Z,37.60
2019-03-27T19:53:57.505Z,41.95
2019-03-27T20:00:02.599Z,37.55
2019-03-27T20:06:07.410Z,36.65
2019-03-27T20:12:12.824Z,37.75
2019-03-27T20:18:17.902Z,37.67
2019-03-27T20:24:22.697Z,38.63
2019-03-27T20:30:27.567Z,40.88
2019-03-27T20:36:32.437Z,42.67
2019-03-27T20:42:38.005Z,47.58
2019-03-27T20:48:43.187Z,45.03
2019-03-27T20:54:55.222Z,45.30
2019-03-27T21:01:01.508Z,45.23
2019-03-27T21:07:07.758Z,40.03
2019-03-27T21:13:13.398Z,38.58
2019-03-27T21:19:27.215Z,40.50
2019-03-27T21:25:32.116Z,39.05
2019-03-27T21:31:36.915Z,42.93
2019-03-27T21:37:41.831Z,39.27
2019-03-27T21:43:46.727Z,39.50
2019-03-27T21:49:51.934Z,48.17
2019-03-27T21:55:56.801Z,43.13
2019-03-27T22:02:02.090Z,41.53
2019-03-27T22:08:07.473Z,43.40
2019-03-27T22:14:12.391Z,42.08
2019-03-27T22:20:17.495Z,43.17
2019-03-27T22:26:22.718Z,44.03
2019-03-27T22:32:27.621Z,41.42
2019-03-27T22:38:32.537Z,42.25
2019-03-27T22:44:37.502Z,41.40
2019-03-27T22:50:43.354Z,39.20
2019-03-27T22:56:48.334Z,41.65
2019-03-27T23:02:53.195Z,38.73
2019-03-27T23:08:58.163Z,37.73
2019-03-27T23:15:19.432Z,41.15
2019-03-27T23:21:24.882Z,35.65
2019-03-27T23:27:30.112Z,38.67
2019-03-27T23:33:35.158Z,35.25
2019-03-27T23:39:40.162Z,38.35
2019-03-27T23:45:45.190Z,39.65
2019-03-27T23:51:50.112Z,40.20
2019-03-27T23:57:54.992Z,42.17
